createdAt,value
2022-08-30T00:01:52.900Z,15.60
2022-08-30T00:04:25.870Z,15.60
2022-08-30T00:06:58.907Z,15.60
2022-08-30T00:09:31.657Z,15.50
2022-08-30T00:12:05.839Z,15.50
2022-08-30T00:14:39.202Z,15.50
2022-08-30T00:17:12.922Z,15.50
2022-08-30T00:19:45.760Z,15.50
2022-08-30T00:22:19.411Z,15.50
2022-08-30T00:24:52.172Z,15.50
2022-08-30T00:27:24.999Z,15.50
2022-08-30T00:29:57.808Z,15.50
2022-08-30T00:32:30.972Z,15.60
2022-08-30T00:35:03.928Z,15.60
2022-08-30T00:37:37.316Z,15.60
2022-08-30T00:40:12.105Z,15.60
2022-08-30T00:42:45.429Z,15.60
2022-08-30T00:45:31.116Z,15.60
2022-08-30T00:48:04.342Z,15.60
2022-08-30T00:50:41.682Z,15.60
2022-08-30T00:53:17.154Z,15.60
2022-08-30T00:55:50.906Z,15.70
2022-08-30T00:58:26.228Z,15.70
2022-08-30T01:01:01.367Z,15.70
2022-08-30T01:03:35.333Z,15.80
2022-08-30T01:06:09.353Z,15.80
2022-08-30T01:08:42.140Z,15.80
2022-08-30T01:11:16.234Z,15.80
2022-08-30T01:13:50.136Z,15.80
2022-08-30T01:16:24.272Z,15.80
2022-08-30T01:19:00.133Z,15.70
2022-08-30T01:21:38.197Z,15.70
2022-08-30T01:24:12.565Z,15.70
2022-08-30T01:26:45.535Z,15.70
2022-08-30T01:29:20.359Z,15.70
2022-08-30T01:31:53.320Z,15.70
2022-08-30T01:34:26.315Z,15.70
2022-08-30T01:36:59.057Z,15.70
2022-08-30T01:39:32.533Z,15.70
2022-08-30T01:42:06.275Z,15.70
2022-08-30T01:44:39.111Z,15.70
2022-08-30T01:47:12.849Z,15.70
2022-08-30T01:49:45.713Z,15.70
2022-08-30T01:52:19.975Z,15.70
2022-08-30T01:54:53.528Z,15.70
2022-08-30T01:57:32.932Z,15.70
2022-08-30T02:00:09.739Z,15.70
2022-08-30T02:02:41.299Z,15.70
2022-08-30T02:05:18.755Z,15.70
2022-08-30T02:07:51.718Z,15.60
2022-08-30T02:10:24.733Z,15.60
2022-08-30T02:12:57.578Z,15.60
2022-08-30T02:15:30.479Z,15.60
2022-08-30T02:18:04.737Z,15.60
2022-08-30T02:20:41.587Z,15.60
2022-08-30T02:23:14.590Z,15.60
2022-08-30T02:25:47.538Z,15.60
2022-08-30T02:28:21.694Z,15.60
2022-08-30T02:30:56.017Z,15.60
2022-08-30T02:33:28.862Z,15.60
2022-08-30T02:36:01.863Z,15.60
2022-08-30T02:38:34.856Z,15.60
2022-08-30T02:41:07.773Z,15.50
2022-08-30T02:43:40.795Z,15.50
2022-08-30T02:46:13.773Z,15.50
2022-08-30T02:48:47.273Z,15.50
2022-08-30T02:54:09.096Z,15.40
2022-08-30T02:56:41.797Z,15.40
2022-08-30T02:59:14.836Z,15.40
2022-08-30T03:01:47.968Z,15.40
2022-08-30T03:04:26.368Z,15.30
2022-08-30T03:06:55.337Z,15.30
2022-08-30T03:09:28.606Z,15.30
2022-08-30T03:12:05.823Z,15.30
2022-08-30T03:14:39.571Z,15.30
2022-08-30T03:17:15.563Z,15.30
2022-08-30T03:19:48.844Z,15.20
2022-08-30T03:22:21.854Z,15.30
2022-08-30T03:24:54.817Z,15.20
2022-08-30T03:27:28.830Z,15.20
2022-08-30T03:30:01.693Z,15.20
2022-08-30T03:32:34.684Z,15.20
2022-08-30T03:35:07.905Z,15.20
2022-08-30T03:37:40.972Z,15.20
2022-08-30T03:40:15.983Z,15.20
2022-08-30T03:42:50.584Z,15.20
2022-08-30T03:45:23.998Z,15.20
2022-08-30T03:47:57.344Z,15.10
2022-08-30T03:50:30.420Z,15.10
2022-08-30T03:53:03.929Z,15.10
2022-08-30T03:55:36.886Z,15.10
2022-08-30T03:58:09.578Z,15.10
2022-08-30T04:00:42.679Z,15.00
2022-08-30T04:03:16.091Z,15.00
2022-08-30T04:05:49.075Z,15.00
2022-08-30T04:08:22.140Z,15.00
2022-08-30T04:10:55.378Z,15.00
2022-08-30T04:13:28.643Z,15.00
2022-08-30T04:16:01.406Z,15.00
2022-08-30T04:18:34.736Z,15.00
2022-08-30T04:21:14.130Z,14.90
2022-08-30T04:23:46.474Z,14.90
2022-08-30T04:26:19.242Z,14.90
2022-08-30T04:28:52.139Z,14.90
2022-08-30T04:31:25.056Z,14.90
2022-08-30T04:33:57.886Z,14.90
2022-08-30T04:36:30.868Z,14.80
2022-08-30T04:39:03.594Z,14.80
2022-08-30T04:41:39.055Z,14.80
2022-08-30T04:44:16.801Z,14.80
2022-08-30T04:46:45.946Z,14.80
2022-08-30T04:49:18.653Z,14.80
2022-08-30T04:51:51.645Z,14.80
2022-08-30T04:54:24.430Z,14.70
2022-08-30T04:56:57.476Z,14.70
2022-08-30T04:59:30.752Z,14.70
2022-08-30T05:02:04.020Z,14.70
2022-08-30T05:04:37.083Z,14.70
2022-08-30T05:07:13.509Z,14.60
2022-08-30T05:09:46.398Z,14.60
2022-08-30T05:12:19.231Z,14.60
2022-08-30T05:14:52.213Z,14.60
2022-08-30T05:17:27.562Z,14.60
2022-08-30T05:20:00.982Z,14.60
2022-08-30T05:22:34.389Z,14.60
2022-08-30T05:25:07.597Z,14.50
2022-08-30T05:27:43.846Z,14.50
2022-08-30T05:30:18.365Z,14.50
2022-08-30T05:32:51.202Z,14.50
2022-08-30T05:35:25.905Z,14.50
2022-08-30T05:37:59.053Z,14.50
2022-08-30T05:40:32.149Z,14.50
2022-08-30T05:43:04.921Z,14.40
2022-08-30T05:45:37.572Z,14.40
2022-08-30T05:48:13.007Z,14.40
2022-08-30T05:50:44.602Z,14.40
2022-08-30T05:53:17.293Z,14.40
2022-08-30T05:55:50.134Z,14.30
2022-08-30T05:58:23.027Z,14.30
2022-08-30T06:00:55.969Z,14.30
2022-08-30T06:03:29.269Z,14.30
2022-08-30T06:06:02.228Z,14.30
2022-08-30T06:08:34.968Z,14.20
2022-08-30T06:11:07.883Z,14.20
2022-08-30T06:13:40.539Z,14.20
2022-08-30T06:16:14.818Z,14.20
2022-08-30T06:18:47.929Z,14.10
2022-08-30T06:21:21.853Z,14.10
2022-08-30T06:23:58.847Z,14.10
2022-08-30T06:29:05.751Z,14.10
2022-08-30T06:31:39.539Z,14.00
2022-08-30T06:34:12.562Z,13.90
2022-08-30T06:36:50.106Z,14.00
2022-08-30T06:39:22.871Z,14.00
2022-08-30T06:41:56.060Z,14.00
2022-08-30T06:44:29.113Z,14.00
2022-08-30T06:47:03.183Z,14.00
2022-08-30T06:49:36.158Z,14.00
2022-08-30T06:52:09.225Z,14.00
2022-08-30T06:54:46.030Z,14.00
2022-08-30T06:57:19.049Z,13.90
2022-08-30T06:59:56.665Z,13.90
2022-08-30T07:02:26.422Z,13.90
2022-08-30T07:04:59.393Z,13.90
2022-08-30T07:07:32.314Z,13.80
2022-08-30T07:10:07.285Z,13.80
2022-08-30T07:12:40.171Z,13.80
2022-08-30T07:15:13.971Z,13.80
2022-08-30T07:17:48.013Z,13.80
2022-08-30T07:20:21.812Z,13.80
2022-08-30T07:22:55.140Z,13.80
2022-08-30T07:25:28.285Z,13.80
2022-08-30T07:28:01.126Z,13.80
2022-08-30T07:30:34.961Z,13.80
2022-08-30T07:33:09.145Z,13.80
2022-08-30T07:35:42.907Z,13.70
2022-08-30T07:38:17.159Z,13.70
2022-08-30T07:40:50.577Z,13.70
2022-08-30T07:43:24.891Z,13.70
2022-08-30T07:45:59.179Z,13.70
2022-08-30T07:48:32.224Z,13.70
2022-08-30T07:51:07.054Z,13.70
2022-08-30T07:53:39.960Z,13.70
2022-08-30T07:56:12.807Z,13.60
2022-08-30T07:58:46.110Z,13.60
2022-08-30T08:01:20.315Z,13.60
2022-08-30T08:03:54.291Z,13.60
2022-08-30T08:06:27.621Z,13.60
2022-08-30T08:09:03.236Z,13.60
2022-08-30T08:11:37.483Z,13.60
2022-08-30T08:14:11.007Z,13.60
2022-08-30T08:16:49.071Z,13.60
2022-08-30T08:19:22.143Z,13.60
2022-08-30T08:22:19.656Z,13.60
2022-08-30T08:24:34.586Z,13.60
2022-08-30T08:27:09.956Z,13.60
2022-08-30T08:29:42.932Z,13.60
2022-08-30T08:32:15.759Z,13.60
2022-08-30T08:34:48.783Z,13.60
2022-08-30T08:37:26.735Z,13.60
2022-08-30T08:39:57.879Z,13.60
2022-08-30T08:43:02.256Z,13.60
2022-08-30T08:45:55.060Z,13.50
2022-08-30T08:48:45.636Z,13.50
2022-08-30T08:51:26.714Z,13.50
2022-08-30T08:54:05.402Z,13.50
2022-08-30T08:56:39.267Z,13.50
2022-08-30T08:59:13.679Z,13.50
2022-08-30T09:01:46.703Z,13.50
2022-08-30T09:04:31.464Z,13.50
2022-08-30T09:07:08.773Z,13.50
2022-08-30T09:09:43.121Z,13.50
2022-08-30T09:12:16.697Z,13.50
2022-08-30T09:14:51.483Z,13.50
2022-08-30T09:17:26.490Z,13.40
2022-08-30T09:20:01.295Z,13.50
2022-08-30T09:22:41.485Z,13.50
2022-08-30T09:25:19.603Z,13.50
2022-08-30T09:27:54.183Z,13.50
2022-08-30T09:30:29.142Z,13.40
2022-08-30T09:33:09.967Z,13.40
2022-08-30T09:35:50.602Z,13.40
2022-08-30T09:38:27.937Z,13.40
2022-08-30T09:41:02.873Z,13.40
2022-08-30T09:43:37.703Z,13.30
2022-08-30T09:46:16.481Z,13.30
2022-08-30T09:48:49.203Z,13.30
2022-08-30T09:51:24.252Z,13.30
2022-08-30T09:54:18.129Z,13.20
2022-08-30T09:57:12.609Z,13.20
2022-08-30T09:59:59.519Z,13.20
2022-08-30T10:02:46.979Z,13.20
2022-08-30T10:05:42.999Z,13.20
2022-08-30T10:08:25.278Z,13.10
2022-08-30T10:11:08.609Z,13.10
2022-08-30T10:14:08.571Z,13.20
2022-08-30T10:16:52.862Z,13.10
2022-08-30T10:19:51.898Z,13.10
2022-08-30T10:22:30.148Z,13.10
2022-08-30T10:25:06.443Z,13.10
2022-08-30T10:27:41.071Z,13.10
2022-08-30T10:30:17.312Z,13.10
2022-08-30T10:33:04.229Z,13.10
2022-08-30T10:35:41.957Z,13.10
2022-08-30T10:38:38.862Z,13.00
2022-08-30T10:41:33.786Z,13.00
2022-08-30T10:44:27.437Z,13.00
2022-08-30T10:47:18.509Z,13.00
2022-08-30T10:49:55.193Z,13.00
2022-08-30T10:52:41.708Z,13.00
2022-08-30T10:55:16.883Z,13.00
2022-08-30T10:57:49.834Z,13.00
2022-08-30T11:00:27.681Z,13.00
2022-08-30T11:03:20.042Z,13.00
2022-08-30T11:06:14.769Z,13.00
2022-08-30T11:08:58.465Z,13.00
2022-08-30T11:11:40.883Z,13.00
2022-08-30T11:14:14.572Z,13.00
2022-08-30T11:16:52.743Z,13.00
2022-08-30T11:19:42.748Z,13.10
2022-08-30T11:22:20.406Z,13.10
2022-08-30T11:25:09.825Z,13.10
2022-08-30T11:28:01.047Z,13.10
2022-08-30T11:30:36.100Z,13.10
2022-08-30T11:33:15.628Z,13.10
2022-08-30T11:35:51.615Z,13.10
2022-08-30T11:38:32.682Z,13.10
2022-08-30T11:41:13.726Z,13.00
2022-08-30T11:43:53.157Z,13.00
2022-08-30T11:46:34.167Z,13.00
2022-08-30T11:49:18.197Z,12.90
2022-08-30T11:52:26.571Z,12.90
2022-08-30T11:55:04.526Z,12.90
2022-08-30T11:58:00.946Z,12.90
2022-08-30T12:00:36.335Z,12.90
2022-08-30T12:03:20.849Z,12.80
2022-08-30T12:06:11.476Z,12.80
2022-08-30T12:08:47.247Z,12.80
2022-08-30T12:11:25.785Z,12.80
2022-08-30T12:13:59.765Z,12.70
2022-08-30T12:17:06.241Z,12.70
2022-08-30T12:19:41.386Z,12.60
2022-08-30T12:22:16.472Z,12.60
2022-08-30T12:24:52.730Z,12.60
2022-08-30T12:27:34.870Z,12.60
2022-08-30T12:30:10.173Z,12.60
2022-08-30T12:32:51.441Z,12.60
2022-08-30T12:35:31.778Z,12.60
2022-08-30T12:38:07.759Z,12.60
2022-08-30T12:40:41.478Z,12.50
2022-08-30T12:43:17.296Z,12.60
2022-08-30T12:45:52.766Z,12.60
2022-08-30T12:48:26.978Z,12.60
2022-08-30T12:51:02.913Z,12.60
2022-08-30T12:53:47.701Z,12.60
2022-08-30T12:56:40.636Z,12.50
2022-08-30T12:58:57.964Z,12.60
2022-08-30T13:01:33.480Z,12.50
2022-08-30T13:04:26.182Z,12.50
2022-08-30T13:07:01.039Z,12.50
2022-08-30T13:09:47.196Z,12.50
2022-08-30T13:12:29.491Z,12.50
2022-08-30T13:15:19.983Z,12.50
2022-08-30T13:17:53.952Z,12.40
2022-08-30T13:20:29.184Z,12.40
2022-08-30T13:23:11.201Z,12.40
2022-08-30T13:25:44.634Z,12.40
2022-08-30T13:28:18.389Z,12.30
2022-08-30T13:30:51.381Z,12.30
2022-08-30T13:33:24.316Z,12.30
2022-08-30T13:35:57.907Z,12.30
2022-08-30T13:38:31.737Z,12.30
2022-08-30T13:41:04.539Z,12.30
2022-08-30T13:44:09.339Z,12.30
2022-08-30T13:46:23.196Z,12.20
2022-08-30T13:48:57.941Z,12.20
2022-08-30T13:51:30.939Z,12.20
2022-08-30T13:54:05.994Z,12.20
2022-08-30T13:56:38.976Z,12.10
2022-08-30T13:59:11.844Z,12.10
2022-08-30T14:04:19.459Z,12.10
2022-08-30T14:09:26.455Z,12.00
2022-08-30T14:12:01.768Z,12.00
2022-08-30T14:14:42.450Z,12.00
2022-08-30T14:17:09.168Z,12.00
2022-08-30T14:19:42.271Z,11.90
2022-08-30T14:22:15.102Z,11.90
2022-08-30T14:24:48.177Z,11.90
2022-08-30T14:27:22.395Z,11.90
2022-08-30T14:29:56.558Z,11.90
2022-08-30T14:32:29.388Z,11.80
2022-08-30T14:35:02.174Z,11.80
2022-08-30T14:37:36.408Z,11.80
2022-08-30T14:40:11.992Z,11.80
2022-08-30T14:42:45.256Z,11.80
2022-08-30T14:45:18.200Z,11.80
2022-08-30T14:47:52.360Z,11.70
2022-08-30T14:50:25.389Z,11.70
2022-08-30T14:52:59.220Z,11.70
2022-08-30T14:55:35.587Z,11.70
2022-08-30T14:58:09.317Z,11.70
2022-08-30T15:00:43.037Z,11.60
2022-08-30T15:03:17.142Z,11.60
2022-08-30T15:05:56.394Z,11.60
2022-08-30T15:08:29.205Z,11.60
2022-08-30T15:11:02.057Z,11.50
2022-08-30T15:13:35.084Z,11.50
2022-08-30T15:16:09.182Z,11.50
2022-08-30T15:18:42.966Z,11.50
2022-08-30T15:21:16.089Z,11.50
2022-08-30T15:23:49.771Z,11.40
2022-08-30T15:26:23.872Z,11.40
2022-08-30T15:28:57.116Z,11.40
2022-08-30T15:31:32.862Z,11.40
2022-08-30T15:34:05.860Z,11.30
2022-08-30T15:36:39.897Z,11.30
2022-08-30T15:39:14.505Z,11.30
2022-08-30T15:41:53.762Z,11.30
2022-08-30T15:44:23.901Z,11.30
2022-08-30T15:46:56.851Z,11.30
2022-08-30T15:49:29.630Z,11.30
2022-08-30T15:52:07.447Z,11.30
2022-08-30T15:54:43.506Z,11.30
2022-08-30T15:57:17.414Z,11.20
2022-08-30T15:59:50.268Z,11.30
2022-08-30T16:02:27.497Z,11.20
2022-08-30T16:04:57.169Z,11.20
2022-08-30T16:07:30.095Z,11.20
2022-08-30T16:10:02.852Z,11.20
2022-08-30T16:12:35.924Z,11.20
2022-08-30T16:15:09.223Z,11.20
2022-08-30T16:17:42.047Z,11.20
2022-08-30T16:20:15.420Z,11.20
2022-08-30T16:22:48.200Z,11.20
2022-08-30T16:25:21.253Z,11.30
2022-08-30T16:27:55.272Z,11.30
2022-08-30T16:30:28.203Z,11.30
2022-08-30T16:33:01.226Z,11.20
2022-08-30T16:35:34.040Z,11.20
2022-08-30T16:38:06.908Z,11.20
2022-08-30T16:40:41.427Z,11.30
2022-08-30T16:43:15.772Z,11.20
2022-08-30T16:45:49.009Z,11.30
2022-08-30T16:48:21.750Z,11.20
2022-08-30T16:50:54.818Z,11.20
2022-08-30T16:53:28.785Z,11.30
2022-08-30T16:56:02.633Z,11.20
2022-08-30T16:58:35.517Z,11.30
2022-08-30T17:01:08.731Z,11.30
2022-08-30T17:03:43.094Z,11.20
2022-08-30T17:06:15.831Z,11.20
2022-08-30T17:08:49.414Z,11.20
2022-08-30T17:11:23.407Z,11.20
2022-08-30T17:13:56.171Z,11.20
2022-08-30T17:16:31.509Z,11.20
2022-08-30T17:19:04.641Z,11.10
2022-08-30T17:21:38.898Z,11.20
2022-08-30T17:24:11.656Z,11.20
2022-08-30T17:26:44.647Z,11.20
2022-08-30T17:29:17.951Z,11.20
2022-08-30T17:31:51.584Z,11.20
2022-08-30T17:34:26.490Z,11.20
2022-08-30T17:37:00.619Z,11.20
2022-08-30T17:39:33.751Z,11.10
2022-08-30T17:42:07.096Z,11.10
2022-08-30T17:44:42.284Z,11.10
2022-08-30T17:47:14.562Z,11.10
2022-08-30T17:49:48.235Z,11.10
2022-08-30T17:52:21.181Z,11.10
2022-08-30T17:54:55.341Z,11.10
2022-08-30T17:57:29.657Z,11.10
2022-08-30T18:00:02.781Z,11.10
2022-08-30T18:02:36.901Z,11.00
2022-08-30T18:05:11.829Z,11.00
2022-08-30T18:07:44.855Z,11.00
2022-08-30T18:10:17.774Z,11.00
2022-08-30T18:12:50.966Z,11.00
2022-08-30T18:15:25.443Z,10.90
2022-08-30T18:17:58.332Z,10.90
2022-08-30T18:20:33.464Z,10.90
2022-08-30T18:23:06.703Z,10.90
2022-08-30T18:25:40.308Z,10.90
2022-08-30T18:28:14.360Z,10.80
2022-08-30T18:30:51.417Z,10.80
2022-08-30T18:33:25.546Z,10.80
2022-08-30T18:35:58.489Z,10.80
2022-08-30T18:38:31.653Z,10.80
2022-08-30T18:41:12.591Z,10.80
2022-08-30T18:43:45.730Z,10.80
2022-08-30T18:46:19.226Z,10.70
2022-08-30T18:48:52.561Z,10.70
2022-08-30T18:51:26.220Z,10.70
2022-08-30T18:54:00.433Z,10.70
2022-08-30T18:56:33.494Z,10.70
2022-08-30T18:59:08.044Z,10.70
2022-08-30T19:01:41.718Z,10.70
2022-08-30T19:04:29.510Z,10.70
2022-08-30T19:06:48.717Z,10.60
2022-08-30T19:09:22.103Z,10.60
2022-08-30T19:11:55.875Z,10.60
2022-08-30T19:14:28.782Z,10.60
2022-08-30T19:17:06.584Z,10.60
2022-08-30T19:19:37.309Z,10.60
2022-08-30T19:22:10.577Z,10.60
2022-08-30T19:24:43.815Z,10.60
2022-08-30T19:27:16.847Z,10.60
2022-08-30T19:29:53.102Z,10.50
2022-08-30T19:32:23.846Z,10.50
2022-08-30T19:34:57.629Z,10.50
2022-08-30T19:37:34.688Z,10.60
2022-08-30T19:40:09.543Z,10.60
2022-08-30T19:42:46.098Z,10.60
2022-08-30T19:45:21.676Z,10.60
2022-08-30T19:47:55.040Z,10.60
2022-08-30T19:50:28.411Z,10.70
2022-08-30T19:53:01.469Z,10.70
2022-08-30T19:55:34.517Z,10.80
2022-08-30T19:58:07.467Z,10.80
2022-08-30T20:00:52.998Z,10.90
2022-08-30T20:03:15.703Z,11.00
2022-08-30T20:05:48.583Z,11.10
2022-08-30T20:08:24.367Z,11.10
2022-08-30T20:10:58.165Z,11.20
2022-08-30T20:13:33.787Z,11.30
2022-08-30T20:16:09.222Z,11.30
2022-08-30T20:18:43.077Z,11.30
2022-08-30T20:21:16.537Z,11.30
2022-08-30T20:23:49.435Z,11.30
2022-08-30T20:26:33.470Z,11.40
2022-08-30T20:29:01.843Z,11.40
2022-08-30T20:31:35.442Z,11.50
2022-08-30T20:34:08.758Z,11.50
2022-08-30T20:36:42.225Z,11.60
2022-08-30T20:39:17.400Z,11.60
2022-08-30T20:41:50.301Z,11.60
2022-08-30T20:44:25.440Z,11.60
2022-08-30T20:46:57.564Z,11.60
2022-08-30T20:49:30.420Z,11.60
2022-08-30T20:52:05.056Z,11.70
2022-08-30T20:54:37.940Z,11.70
2022-08-30T20:57:11.068Z,11.80
2022-08-30T20:59:44.948Z,11.80
2022-08-30T21:02:18.166Z,11.90
2022-08-30T21:04:50.787Z,11.90
2022-08-30T21:07:23.551Z,12.00
2022-08-30T21:09:56.441Z,12.00
2022-08-30T21:12:29.170Z,12.00
2022-08-30T21:15:15.320Z,12.10
2022-08-30T21:17:40.382Z,12.20
2022-08-30T21:20:14.854Z,12.30
2022-08-30T21:22:47.615Z,12.40
2022-08-30T21:25:20.405Z,12.50
2022-08-30T21:27:54.309Z,12.60
2022-08-30T21:30:27.386Z,12.80
2022-08-30T21:33:01.969Z,12.90
2022-08-30T21:35:52.245Z,12.90
2022-08-30T21:38:25.154Z,13.00
2022-08-30T21:40:57.976Z,13.10
2022-08-30T21:43:30.760Z,13.20
2022-08-30T21:46:05.556Z,13.30
2022-08-30T21:48:38.953Z,13.30
2022-08-30T21:51:14.000Z,13.40
2022-08-30T21:53:46.961Z,13.50
2022-08-30T21:56:22.543Z,13.60
2022-08-30T21:58:55.383Z,13.70
2022-08-30T22:01:29.904Z,13.80
2022-08-30T22:04:04.352Z,13.90
2022-08-30T22:06:39.140Z,14.00
2022-08-30T22:09:14.730Z,14.10
2022-08-30T22:11:48.507Z,14.20
2022-08-30T22:14:23.168Z,14.30
2022-08-30T22:16:56.667Z,14.40
2022-08-30T22:19:33.827Z,14.50
2022-08-30T22:22:04.292Z,14.60
2022-08-30T22:24:37.351Z,14.70
2022-08-30T22:27:10.243Z,14.80
2022-08-30T22:29:43.170Z,14.90
2022-08-30T22:32:15.883Z,14.90
2022-08-30T22:34:49.944Z,15.00
2022-08-30T22:37:23.320Z,15.10
2022-08-30T22:39:56.724Z,15.10
2022-08-30T22:42:29.485Z,15.20
2022-08-30T22:45:02.578Z,15.20
2022-08-30T22:47:35.897Z,15.20
2022-08-30T22:50:08.993Z,15.20
2022-08-30T22:52:45.121Z,15.30
2022-08-30T22:55:18.378Z,15.30
2022-08-30T22:57:51.358Z,15.40
2022-08-30T23:00:24.256Z,15.50
2022-08-30T23:02:58.350Z,15.60
2022-08-30T23:05:31.298Z,15.60
2022-08-30T23:08:04.036Z,15.60
2022-08-30T23:10:37.597Z,15.70
2022-08-30T23:13:10.383Z,15.70
2022-08-30T23:15:43.002Z,15.70
2022-08-30T23:18:16.091Z,15.80
2022-08-30T23:20:48.934Z,15.80
2022-08-30T23:23:39.000Z,15.90
2022-08-30T23:26:29.581Z,15.90
2022-08-30T23:29:19.559Z,15.90
2022-08-30T23:32:10.164Z,15.90
2022-08-30T23:35:00.453Z,15.90
2022-08-30T23:37:53.081Z,15.80
2022-08-30T23:40:43.900Z,15.90
2022-08-30T23:43:34.704Z,15.90
2022-08-30T23:46:25.102Z,16.00
2022-08-30T23:49:15.193Z,16.00
2022-08-30T23:52:05.287Z,16.00
2022-08-30T23:54:57.320Z,16.00
2022-08-30T23:57:52.442Z,16.00
